Buie, Arkansas
Current Conditions -  °F | °C
As of 7:53 PM on Thursday 20 Nov 2014 (Local Time) from KLIT Reporting Station
Overcast Overcast  
Wind Chill: 47°   Ceiling: 5500
Heat Index: 49°   Visibility: 10mi
Dew Point: 35°   Wind: 5mph
Humidity: 59%   Direction: 80°E
Pressure: 30.18"   Gusts: NA
Location:  34.2978°N, 92.5047°W
Report Text: KLIT 210153Z 08004KT 10SM OVC055 09/02 A3018 RMK AO2 SLP224 T00940017
Loading
Personal Weather Stations






























Interactive Weather Map New forecast layout! Learn more

10-Day Weather Forecast

Advertisements
Track Severe Weather on mobile